sensor_id;sensor_type;location;lat;lon;timestamp;P1;durP1;ratioP1;P2;durP2;ratioP2
6007;SDS011;3032;49.484;11.112;2024-03-02T00:01:07;57.90;;;27.33;;
6007;SDS011;3032;49.484;11.112;2024-03-02T00:03:36;53.70;;;29.35;;
6007;SDS011;3032;49.484;11.112;2024-03-02T00:06:03;56.45;;;29.30;;
6007;SDS011;3032;49.484;11.112;2024-03-02T00:08:29;57.53;;;29.65;;
6007;SDS011;3032;49.484;11.112;2024-03-02T00:10:58;57.30;;;29.00;;
6007;SDS011;3032;49.484;11.112;2024-03-02T00:13:26;55.45;;;28.83;;
6007;SDS011;3032;49.484;11.112;2024-03-02T00:15:55;54.87;;;30.77;;
6007;SDS011;3032;49.484;11.112;2024-03-02T00:18:31;49.00;;;28.13;;
6007;SDS011;3032;49.484;11.112;2024-03-02T00:20:59;47.88;;;27.65;;
6007;SDS011;3032;49.484;11.112;2024-03-02T00:23:32;59.38;;;29.00;;
6007;SDS011;3032;49.484;11.112;2024-03-02T00:25:58;54.88;;;29.35;;
6007;SDS011;3032;49.484;11.112;2024-03-02T00:28:25;51.78;;;28.98;;
6007;SDS011;3032;49.484;11.112;2024-03-02T00:30:57;58.75;;;29.35;;
6007;SDS011;3032;49.484;11.112;2024-03-02T00:33:30;58.85;;;28.63;;
6007;SDS011;3032;49.484;11.112;2024-03-02T00:35:57;56.70;;;29.55;;
6007;SDS011;3032;49.484;11.112;2024-03-02T00:38:24;61.22;;;30.15;;
6007;SDS011;3032;49.484;11.112;2024-03-02T00:40:51;55.85;;;30.25;;
6007;SDS011;3032;49.484;11.112;2024-03-02T00:46:11;51.38;;;28.08;;
6007;SDS011;3032;49.484;11.112;2024-03-02T00:48:37;55.05;;;29.73;;
6007;SDS011;3032;49.484;11.112;2024-03-02T00:51:04;52.58;;;28.77;;
6007;SDS011;3032;49.484;11.112;2024-03-02T00:53:30;50.73;;;27.73;;
6007;SDS011;3032;49.484;11.112;2024-03-02T00:55:57;51.05;;;27.88;;
6007;SDS011;3032;49.484;11.112;2024-03-02T00:58:24;58.47;;;29.98;;
6007;SDS011;3032;49.484;11.112;2024-03-02T01:00:50;52.60;;;29.13;;
6007;SDS011;3032;49.484;11.112;2024-03-02T01:03:15;57.43;;;29.80;;
6007;SDS011;3032;49.484;11.112;2024-03-02T01:05:41;49.93;;;28.00;;
6007;SDS011;3032;49.484;11.112;2024-03-02T01:08:07;57.80;;;29.98;;
6007;SDS011;3032;49.484;11.112;2024-03-02T01:10:33;52.38;;;28.45;;
6007;SDS011;3032;49.484;11.112;2024-03-02T01:12:59;55.43;;;29.07;;
6007;SDS011;3032;49.484;11.112;2024-03-02T01:15:25;51.10;;;29.03;;
6007;SDS011;3032;49.484;11.112;2024-03-02T01:17:50;61.10;;;31.30;;
6007;SDS011;3032;49.484;11.112;2024-03-02T01:20:16;54.73;;;30.90;;
6007;SDS011;3032;49.484;11.112;2024-03-02T01:22:42;61.10;;;30.95;;
6007;SDS011;3032;49.484;11.112;2024-03-02T01:25:08;56.90;;;29.80;;
6007;SDS011;3032;49.484;11.112;2024-03-02T01:27:34;62.45;;;32.00;;
6007;SDS011;3032;49.484;11.112;2024-03-02T01:29:59;56.60;;;31.77;;
6007;SDS011;3032;49.484;11.112;2024-03-02T01:32:25;61.60;;;32.30;;
6007;SDS011;3032;49.484;11.112;2024-03-02T01:34:51;64.50;;;32.40;;
6007;SDS011;3032;49.484;11.112;2024-03-02T01:37:16;63.67;;;34.50;;
6007;SDS011;3032;49.484;11.112;2024-03-02T01:39:42;58.27;;;30.60;;
6007;SDS011;3032;49.484;11.112;2024-03-02T01:42:07;70.63;;;35.40;;
6007;SDS011;3032;49.484;11.112;2024-03-02T01:44:33;66.77;;;33.60;;
6007;SDS011;3032;49.484;11.112;2024-03-02T01:46:58;66.50;;;32.07;;
6007;SDS011;3032;49.484;11.112;2024-03-02T01:49:24;56.73;;;31.50;;
6007;SDS011;3032;49.484;11.112;2024-03-02T01:51:50;67.30;;;32.10;;
6007;SDS011;3032;49.484;11.112;2024-03-02T01:54:15;65.00;;;33.90;;
6007;SDS011;3032;49.484;11.112;2024-03-02T01:56:41;72.37;;;34.60;;
6007;SDS011;3032;49.484;11.112;2024-03-02T01:59:07;60.67;;;32.47;;
6007;SDS011;3032;49.484;11.112;2024-03-02T02:01:32;60.97;;;32.80;;
6007;SDS011;3032;49.484;11.112;2024-03-02T02:03:58;63.87;;;30.17;;
6007;SDS011;3032;49.484;11.112;2024-03-02T02:06:23;58.50;;;30.60;;
6007;SDS011;3032;49.484;11.112;2024-03-02T02:08:49;65.87;;;32.33;;
6007;SDS011;3032;49.484;11.112;2024-03-02T02:11:15;67.83;;;34.27;;
6007;SDS011;3032;49.484;11.112;2024-03-02T02:13:41;75.35;;;35.40;;
6007;SDS011;3032;49.484;11.112;2024-03-02T02:16:07;78.53;;;37.00;;
6007;SDS011;3032;49.484;11.112;2024-03-02T02:18:33;65.60;;;31.92;;
6007;SDS011;3032;49.484;11.112;2024-03-02T02:20:59;65.40;;;33.33;;
6007;SDS011;3032;49.484;11.112;2024-03-02T02:23:24;67.73;;;32.77;;
6007;SDS011;3032;49.484;11.112;2024-03-02T02:25:50;65.50;;;32.87;;
6007;SDS011;3032;49.484;11.112;2024-03-02T02:28:15;68.40;;;31.90;;
6007;SDS011;3032;49.484;11.112;2024-03-02T02:30:41;61.40;;;32.90;;
6007;SDS011;3032;49.484;11.112;2024-03-02T02:33:07;67.68;;;33.95;;
6007;SDS011;3032;49.484;11.112;2024-03-02T02:35:34;67.90;;;33.20;;
6007;SDS011;3032;49.484;11.112;2024-03-02T02:37:59;68.90;;;33.60;;
6007;SDS011;3032;49.484;11.112;2024-03-02T02:40:25;64.55;;;33.80;;
6007;SDS011;3032;49.484;11.112;2024-03-02T02:42:51;69.57;;;33.43;;
6007;SDS011;3032;49.484;11.112;2024-03-02T02:45:17;66.13;;;33.30;;
6007;SDS011;3032;49.484;11.112;2024-03-02T02:47:43;62.80;;;32.00;;
6007;SDS011;3032;49.484;11.112;2024-03-02T02:50:09;62.88;;;32.42;;
6007;SDS011;3032;49.484;11.112;2024-03-02T02:52:37;67.80;;;32.95;;
6007;SDS011;3032;49.484;11.112;2024-03-02T02:55:04;52.78;;;29.65;;
6007;SDS011;3032;49.484;11.112;2024-03-02T02:57:32;66.85;;;32.95;;
6007;SDS011;3032;49.484;11.112;2024-03-02T03:00:07;61.53;;;30.33;;
6007;SDS011;3032;49.484;11.112;2024-03-02T03:02:41;66.57;;;31.38;;
6007;SDS011;3032;49.484;11.112;2024-03-02T03:05:07;59.15;;;30.42;;
6007;SDS011;3032;49.484;11.112;2024-03-02T03:07:34;63.13;;;32.30;;
6007;SDS011;3032;49.484;11.112;2024-03-02T03:10:02;65.78;;;33.05;;
6007;SDS011;3032;49.484;11.112;2024-03-02T03:12:28;64.03;;;30.80;;
6007;SDS011;3032;49.484;11.112;2024-03-02T03:14:54;52.93;;;28.47;;
6007;SDS011;3032;49.484;11.112;2024-03-02T03:17:20;59.80;;;30.30;;
6007;SDS011;3032;49.484;11.112;2024-03-02T03:19:47;49.33;;;27.20;;
6007;SDS011;3032;49.484;11.112;2024-03-02T03:22:12;55.00;;;30.00;;
6007;SDS011;3032;49.484;11.112;2024-03-02T03:24:38;53.87;;;28.63;;
6007;SDS011;3032;49.484;11.112;2024-03-02T03:27:04;54.53;;;28.10;;
6007;SDS011;3032;49.484;11.112;2024-03-02T03:29:29;56.97;;;29.10;;
6007;SDS011;3032;49.484;11.112;2024-03-02T03:31:55;54.73;;;30.07;;
6007;SDS011;3032;49.484;11.112;2024-03-02T03:34:20;48.57;;;28.30;;
6007;SDS011;3032;49.484;11.112;2024-03-02T03:36:46;50.00;;;28.00;;
6007;SDS011;3032;49.484;11.112;2024-03-02T03:39:11;50.77;;;28.50;;
6007;SDS011;3032;49.484;11.112;2024-03-02T03:41:37;46.17;;;26.53;;
6007;SDS011;3032;49.484;11.112;2024-03-02T03:44:03;51.23;;;27.70;;
6007;SDS011;3032;49.484;11.112;2024-03-02T03:46:28;43.77;;;25.77;;
6007;SDS011;3032;49.484;11.112;2024-03-02T03:48:54;43.97;;;23.33;;
6007;SDS011;3032;49.484;11.112;2024-03-02T03:51:21;39.17;;;24.88;;
6007;SDS011;3032;49.484;11.112;2024-03-02T03:53:49;39.60;;;23.98;;
6007;SDS011;3032;49.484;11.112;2024-03-02T03:56:15;43.07;;;24.37;;
6007;SDS011;3032;49.484;11.112;2024-03-02T03:58:40;41.43;;;24.00;;
6007;SDS011;3032;49.484;11.112;2024-03-02T04:01:06;38.77;;;23.00;;
6007;SDS011;3032;49.484;11.112;2024-03-02T04:03:32;44.30;;;25.60;;
6007;SDS011;3032;49.484;11.112;2024-03-02T04:05:57;45.00;;;25.43;;
6007;SDS011;3032;49.484;11.112;2024-03-02T04:08:23;43.37;;;24.23;;
6007;SDS011;3032;49.484;11.112;2024-03-02T04:10:48;44.10;;;22.47;;
6007;SDS011;3032;49.484;11.112;2024-03-02T04:13:14;38.57;;;22.50;;
6007;SDS011;3032;49.484;11.112;2024-03-02T04:15:39;46.83;;;26.00;;
6007;SDS011;3032;49.484;11.112;2024-03-02T04:18:08;45.00;;;24.23;;
6007;SDS011;3032;49.484;11.112;2024-03-02T04:20:33;47.60;;;24.90;;
6007;SDS011;3032;49.484;11.112;2024-03-02T04:22:59;44.27;;;24.60;;
6007;SDS011;3032;49.484;11.112;2024-03-02T04:25:24;42.00;;;23.10;;
6007;SDS011;3032;49.484;11.112;2024-03-02T04:27:50;36.73;;;22.13;;
6007;SDS011;3032;49.484;11.112;2024-03-02T04:30:15;36.40;;;20.60;;
6007;SDS011;3032;49.484;11.112;2024-03-02T04:32:41;43.87;;;23.30;;
6007;SDS011;3032;49.484;11.112;2024-03-02T04:35:11;39.58;;;22.50;;
6007;SDS011;3032;49.484;11.112;2024-03-02T04:37:37;40.30;;;22.27;;
6007;SDS011;3032;49.484;11.112;2024-03-02T04:40:03;38.33;;;21.33;;
6007;SDS011;3032;49.484;11.112;2024-03-02T04:42:30;42.80;;;23.25;;
6007;SDS011;3032;49.484;11.112;2024-03-02T04:44:55;39.07;;;22.17;;
6007;SDS011;3032;49.484;11.112;2024-03-02T04:47:21;41.37;;;24.30;;
6007;SDS011;3032;49.484;11.112;2024-03-02T04:49:47;40.30;;;24.15;;
6007;SDS011;3032;49.484;11.112;2024-03-02T04:52:13;42.53;;;23.90;;
6007;SDS011;3032;49.484;11.112;2024-03-02T04:54:38;41.70;;;22.90;;
6007;SDS011;3032;49.484;11.112;2024-03-02T04:57:22;45.47;;;25.00;;
6007;SDS011;3032;49.484;11.112;2024-03-02T04:59:48;46.17;;;24.33;;
6007;SDS011;3032;49.484;11.112;2024-03-02T05:02:14;41.07;;;22.50;;
6007;SDS011;3032;49.484;11.112;2024-03-02T05:04:40;40.63;;;23.00;;
6007;SDS011;3032;49.484;11.112;2024-03-02T05:07:06;42.83;;;23.00;;
6007;SDS011;3032;49.484;11.112;2024-03-02T05:09:32;37.50;;;20.87;;
6007;SDS011;3032;49.484;11.112;2024-03-02T05:11:58;39.17;;;22.90;;
6007;SDS011;3032;49.484;11.112;2024-03-02T05:14:29;42.47;;;22.67;;
6007;SDS011;3032;49.484;11.112;2024-03-02T05:16:55;40.30;;;22.03;;
6007;SDS011;3032;49.484;11.112;2024-03-02T05:19:20;41.40;;;22.87;;
6007;SDS011;3032;49.484;11.112;2024-03-02T05:21:46;47.17;;;25.47;;
6007;SDS011;3032;49.484;11.112;2024-03-02T05:24:11;39.50;;;21.80;;
6007;SDS011;3032;49.484;11.112;2024-03-02T05:26:37;40.13;;;23.00;;
6007;SDS011;3032;49.484;11.112;2024-03-02T05:29:02;47.40;;;23.33;;
6007;SDS011;3032;49.484;11.112;2024-03-02T05:31:28;44.47;;;23.23;;
6007;SDS011;3032;49.484;11.112;2024-03-02T05:33:53;42.80;;;23.00;;
6007;SDS011;3032;49.484;11.112;2024-03-02T05:36:19;40.73;;;22.80;;
6007;SDS011;3032;49.484;11.112;2024-03-02T05:38:45;47.78;;;23.65;;
6007;SDS011;3032;49.484;11.112;2024-03-02T05:41:11;47.37;;;24.53;;
6007;SDS011;3032;49.484;11.112;2024-03-02T05:43:37;45.00;;;25.63;;
6007;SDS011;3032;49.484;11.112;2024-03-02T05:46:02;45.00;;;24.20;;
6007;SDS011;3032;49.484;11.112;2024-03-02T05:48:28;42.30;;;22.77;;
6007;SDS011;3032;49.484;11.112;2024-03-02T05:50:54;45.80;;;23.37;;
6007;SDS011;3032;49.484;11.112;2024-03-02T05:53:19;42.97;;;23.90;;
6007;SDS011;3032;49.484;11.112;2024-03-02T05:55:45;44.63;;;23.60;;
6007;SDS011;3032;49.484;11.112;2024-03-02T05:58:10;41.20;;;22.30;;
6007;SDS011;3032;49.484;11.112;2024-03-02T06:00:54;43.38;;;23.08;;
6007;SDS011;3032;49.484;11.112;2024-03-02T06:03:20;43.10;;;24.30;;
6007;SDS011;3032;49.484;11.112;2024-03-02T06:05:45;40.13;;;23.60;;
6007;SDS011;3032;49.484;11.112;2024-03-02T06:08:14;54.83;;;24.42;;
6007;SDS011;3032;49.484;11.112;2024-03-02T06:10:39;44.67;;;22.37;;
6007;SDS011;3032;49.484;11.112;2024-03-02T06:13:05;38.93;;;22.30;;
6007;SDS011;3032;49.484;11.112;2024-03-02T06:15:31;44.13;;;24.43;;
6007;SDS011;3032;49.484;11.112;2024-03-02T06:17:56;46.50;;;23.53;;
6007;SDS011;3032;49.484;11.112;2024-03-02T06:20:22;45.27;;;23.57;;
6007;SDS011;3032;49.484;11.112;2024-03-02T06:22:47;56.87;;;24.97;;
6007;SDS011;3032;49.484;11.112;2024-03-02T06:25:13;43.33;;;24.27;;
6007;SDS011;3032;49.484;11.112;2024-03-02T06:27:38;51.27;;;23.37;;
6007;SDS011;3032;49.484;11.112;2024-03-02T06:30:04;42.83;;;22.70;;
6007;SDS011;3032;49.484;11.112;2024-03-02T06:32:30;44.67;;;22.90;;
6007;SDS011;3032;49.484;11.112;2024-03-02T06:34:56;52.30;;;24.63;;
6007;SDS011;3032;49.484;11.112;2024-03-02T06:37:21;50.17;;;23.97;;
6007;SDS011;3032;49.484;11.112;2024-03-02T06:39:47;47.83;;;23.90;;
6007;SDS011;3032;49.484;11.112;2024-03-02T06:42:12;43.53;;;23.50;;
6007;SDS011;3032;49.484;11.112;2024-03-02T06:44:38;40.20;;;23.43;;
6007;SDS011;3032;49.484;11.112;2024-03-02T06:47:03;42.93;;;24.23;;
6007;SDS011;3032;49.484;11.112;2024-03-02T06:49:29;45.65;;;24.73;;
6007;SDS011;3032;49.484;11.112;2024-03-02T06:51:55;41.53;;;23.10;;
6007;SDS011;3032;49.484;11.112;2024-03-02T06:54:20;43.10;;;22.67;;
6007;SDS011;3032;49.484;11.112;2024-03-02T06:56:46;43.33;;;23.30;;
6007;SDS011;3032;49.484;11.112;2024-03-02T06:59:12;41.20;;;23.00;;
6007;SDS011;3032;49.484;11.112;2024-03-02T07:01:37;42.27;;;22.10;;
6007;SDS011;3032;49.484;11.112;2024-03-02T07:04:03;37.47;;;21.23;;
6007;SDS011;3032;49.484;11.112;2024-03-02T07:06:31;42.58;;;22.27;;
6007;SDS011;3032;49.484;11.112;2024-03-02T07:08:57;44.07;;;22.17;;
6007;SDS011;3032;49.484;11.112;2024-03-02T07:11:22;33.90;;;20.00;;
6007;SDS011;3032;49.484;11.112;2024-03-02T07:13:48;35.73;;;20.80;;
6007;SDS011;3032;49.484;11.112;2024-03-02T07:16:13;37.80;;;21.50;;
6007;SDS011;3032;49.484;11.112;2024-03-02T07:18:57;31.13;;;19.30;;
6007;SDS011;3032;49.484;11.112;2024-03-02T07:21:24;36.17;;;20.30;;
6007;SDS011;3032;49.484;11.112;2024-03-02T07:23:49;33.33;;;20.50;;
6007;SDS011;3032;49.484;11.112;2024-03-02T07:26:15;30.52;;;19.05;;
6007;SDS011;3032;49.484;11.112;2024-03-02T07:28:43;27.00;;;17.80;;
6007;SDS011;3032;49.484;11.112;2024-03-02T07:31:09;24.45;;;17.48;;
6007;SDS011;3032;49.484;11.112;2024-03-02T07:33:35;26.83;;;19.13;;
6007;SDS011;3032;49.484;11.112;2024-03-02T07:36:00;21.60;;;15.47;;
6007;SDS011;3032;49.484;11.112;2024-03-02T07:38:27;21.40;;;15.57;;
6007;SDS011;3032;49.484;11.112;2024-03-02T07:40:53;26.63;;;17.35;;
6007;SDS011;3032;49.484;11.112;2024-03-02T07:43:19;20.90;;;15.60;;
6007;SDS011;3032;49.484;11.112;2024-03-02T07:45:45;26.20;;;17.90;;
6007;SDS011;3032;49.484;11.112;2024-03-02T07:48:11;27.70;;;17.40;;
6007;SDS011;3032;49.484;11.112;2024-03-02T07:50:37;28.03;;;18.23;;
6007;SDS011;3032;49.484;11.112;2024-03-02T07:53:04;25.17;;;16.75;;
6007;SDS011;3032;49.484;11.112;2024-03-02T07:55:30;26.92;;;17.30;;
6007;SDS011;3032;49.484;11.112;2024-03-02T07:57:59;22.50;;;16.00;;
6007;SDS011;3032;49.484;11.112;2024-03-02T08:00:25;22.60;;;16.05;;
6007;SDS011;3032;49.484;11.112;2024-03-02T08:02:52;23.77;;;16.58;;
6007;SDS011;3032;49.484;11.112;2024-03-02T08:05:18;23.57;;;16.20;;
6007;SDS011;3032;49.484;11.112;2024-03-02T08:07:46;23.73;;;16.77;;
6007;SDS011;3032;49.484;11.112;2024-03-02T08:10:13;23.55;;;16.77;;
6007;SDS011;3032;49.484;11.112;2024-03-02T08:12:38;22.17;;;16.00;;
6007;SDS011;3032;49.484;11.112;2024-03-02T08:15:04;25.50;;;17.77;;
6007;SDS011;3032;49.484;11.112;2024-03-02T08:17:30;22.50;;;15.77;;
6007;SDS011;3032;49.484;11.112;2024-03-02T08:19:56;23.30;;;15.13;;
6007;SDS011;3032;49.484;11.112;2024-03-02T08:22:23;21.25;;;15.15;;
6007;SDS011;3032;49.484;11.112;2024-03-02T08:24:50;25.63;;;16.80;;
6007;SDS011;3032;49.484;11.112;2024-03-02T08:27:16;20.25;;;14.15;;
6007;SDS011;3032;49.484;11.112;2024-03-02T08:29:42;20.87;;;15.60;;
6007;SDS011;3032;49.484;11.112;2024-03-02T08:32:07;20.17;;;13.90;;
6007;SDS011;3032;49.484;11.112;2024-03-02T08:34:33;21.60;;;14.30;;
6007;SDS011;3032;49.484;11.112;2024-03-02T08:37:02;21.80;;;15.50;;
6007;SDS011;3032;49.484;11.112;2024-03-02T08:39:28;20.17;;;14.32;;
6007;SDS011;3032;49.484;11.112;2024-03-02T08:41:53;21.37;;;14.53;;
6007;SDS011;3032;49.484;11.112;2024-03-02T08:44:19;18.92;;;14.82;;
6007;SDS011;3032;49.484;11.112;2024-03-02T08:46:45;17.38;;;13.50;;
6007;SDS011;3032;49.484;11.112;2024-03-02T08:49:12;17.45;;;13.98;;
6007;SDS011;3032;49.484;11.112;2024-03-02T08:51:37;19.27;;;14.87;;
6007;SDS011;3032;49.484;11.112;2024-03-02T08:54:03;15.03;;;12.33;;
6007;SDS011;3032;49.484;11.112;2024-03-02T08:56:29;17.38;;;13.35;;
6007;SDS011;3032;49.484;11.112;2024-03-02T08:58:55;15.98;;;13.20;;
6007;SDS011;3032;49.484;11.112;2024-03-02T09:01:21;16.17;;;12.50;;
6007;SDS011;3032;49.484;11.112;2024-03-02T09:03:46;17.03;;;13.20;;
6007;SDS011;3032;49.484;11.112;2024-03-02T09:06:14;13.50;;;11.38;;
6007;SDS011;3032;49.484;11.112;2024-03-02T09:08:41;14.68;;;11.88;;
6007;SDS011;3032;49.484;11.112;2024-03-02T09:11:08;16.33;;;12.90;;
6007;SDS011;3032;49.484;11.112;2024-03-02T09:13:35;12.85;;;10.32;;
6007;SDS011;3032;49.484;11.112;2024-03-02T09:16:02;14.32;;;12.30;;
6007;SDS011;3032;49.484;11.112;2024-03-02T09:18:27;13.77;;;12.33;;
6007;SDS011;3032;49.484;11.112;2024-03-02T09:20:53;12.70;;;11.20;;
6007;SDS011;3032;49.484;11.112;2024-03-02T09:23:18;15.27;;;12.37;;
6007;SDS011;3032;49.484;11.112;2024-03-02T09:25:44;15.23;;;12.37;;
6007;SDS011;3032;49.484;11.112;2024-03-02T09:28:10;13.97;;;11.07;;
6007;SDS011;3032;49.484;11.112;2024-03-02T09:30:35;15.10;;;11.70;;
6007;SDS011;3032;49.484;11.112;2024-03-02T09:33:01;14.83;;;11.60;;
6007;SDS011;3032;49.484;11.112;2024-03-02T09:35:27;13.97;;;11.90;;
6007;SDS011;3032;49.484;11.112;2024-03-02T09:37:52;14.17;;;11.73;;
6007;SDS011;3032;49.484;11.112;2024-03-02T09:40:18;13.53;;;11.63;;
6007;SDS011;3032;49.484;11.112;2024-03-02T09:42:46;12.63;;;10.50;;
6007;SDS011;3032;49.484;11.112;2024-03-02T09:45:17;12.77;;;11.05;;
6007;SDS011;3032;49.484;11.112;2024-03-02T09:47:47;14.88;;;12.68;;
6007;SDS011;3032;49.484;11.112;2024-03-02T09:50:13;12.80;;;10.60;;
6007;SDS011;3032;49.484;11.112;2024-03-02T09:52:39;14.25;;;10.23;;
6007;SDS011;3032;49.484;11.112;2024-03-02T09:55:07;13.88;;;11.70;;
6007;SDS011;3032;49.484;11.112;2024-03-02T09:57:33;16.05;;;12.18;;
6007;SDS011;3032;49.484;11.112;2024-03-02T09:59:59;13.50;;;11.20;;
6007;SDS011;3032;49.484;11.112;2024-03-02T10:02:24;12.23;;;11.00;;
6007;SDS011;3032;49.484;11.112;2024-03-02T10:04:50;12.23;;;10.70;;
6007;SDS011;3032;49.484;11.112;2024-03-02T10:07:16;11.30;;;10.20;;
6007;SDS011;3032;49.484;11.112;2024-03-02T10:09:43;13.38;;;10.65;;
6007;SDS011;3032;49.484;11.112;2024-03-02T10:12:13;12.38;;;10.25;;
6007;SDS011;3032;49.484;11.112;2024-03-02T10:14:40;14.05;;;11.30;;
6007;SDS011;3032;49.484;11.112;2024-03-02T10:17:10;12.85;;;10.70;;
6007;SDS011;3032;49.484;11.112;2024-03-02T10:19:39;11.07;;;9.88;;
6007;SDS011;3032;49.484;11.112;2024-03-02T10:22:05;12.20;;;10.17;;
6007;SDS011;3032;49.484;11.112;2024-03-02T10:24:39;13.63;;;11.07;;
6007;SDS011;3032;49.484;11.112;2024-03-02T10:27:06;12.07;;;10.20;;
6007;SDS011;3032;49.484;11.112;2024-03-02T10:29:41;12.45;;;10.63;;
6007;SDS011;3032;49.484;11.112;2024-03-02T10:32:10;14.10;;;12.20;;
6007;SDS011;3032;49.484;11.112;2024-03-02T10:34:36;11.95;;;10.68;;
6007;SDS011;3032;49.484;11.112;2024-03-02T10:37:04;14.20;;;11.70;;
6007;SDS011;3032;49.484;11.112;2024-03-02T10:39:31;13.57;;;11.25;;
6007;SDS011;3032;49.484;11.112;2024-03-02T10:41:57;13.33;;;11.93;;
6007;SDS011;3032;49.484;11.112;2024-03-02T10:44:23;13.95;;;12.02;;
6007;SDS011;3032;49.484;11.112;2024-03-02T10:46:53;13.95;;;11.30;;
6007;SDS011;3032;49.484;11.112;2024-03-02T10:49:20;17.35;;;13.52;;
6007;SDS011;3032;49.484;11.112;2024-03-02T10:51:49;15.52;;;12.05;;
6007;SDS011;3032;49.484;11.112;2024-03-02T10:54:14;15.23;;;12.50;;
6007;SDS011;3032;49.484;11.112;2024-03-02T10:56:41;14.07;;;11.70;;
6007;SDS011;3032;49.484;11.112;2024-03-02T11:01:58;16.23;;;12.70;;
6007;SDS011;3032;49.484;11.112;2024-03-02T11:04:25;13.43;;;11.38;;
6007;SDS011;3032;49.484;11.112;2024-03-02T11:06:59;15.57;;;11.57;;
6007;SDS011;3032;49.484;11.112;2024-03-02T11:09:30;17.27;;;12.30;;
6007;SDS011;3032;49.484;11.112;2024-03-02T11:14:30;14.77;;;12.23;;
6007;SDS011;3032;49.484;11.112;2024-03-02T11:17:00;14.88;;;11.90;;
6007;SDS011;3032;49.484;11.112;2024-03-02T11:19:28;16.05;;;13.15;;
6007;SDS011;3032;49.484;11.112;2024-03-02T11:21:54;16.02;;;12.85;;
6007;SDS011;3032;49.484;11.112;2024-03-02T11:26:46;15.10;;;12.23;;
6007;SDS011;3032;49.484;11.112;2024-03-02T11:32:04;13.38;;;11.80;;
6007;SDS011;3032;49.484;11.112;2024-03-02T11:34:40;12.43;;;11.07;;
6007;SDS011;3032;49.484;11.112;2024-03-02T11:37:12;13.13;;;11.07;;
6007;SDS011;3032;49.484;11.112;2024-03-02T11:39:38;12.52;;;10.32;;
6007;SDS011;3032;49.484;11.112;2024-03-02T11:42:07;12.30;;;10.60;;
6007;SDS011;3032;49.484;11.112;2024-03-02T11:44:36;11.40;;;9.82;;
6007;SDS011;3032;49.484;11.112;2024-03-02T11:47:05;12.00;;;10.23;;
6007;SDS011;3032;49.484;11.112;2024-03-02T11:49:45;11.30;;;9.18;;
6007;SDS011;3032;49.484;11.112;2024-03-02T11:52:13;12.85;;;9.95;;
6007;SDS011;3032;49.484;11.112;2024-03-02T11:54:41;12.20;;;10.07;;
6007;SDS011;3032;49.484;11.112;2024-03-02T11:57:20;11.27;;;9.90;;
6007;SDS011;3032;49.484;11.112;2024-03-02T11:59:49;13.00;;;10.45;;
6007;SDS011;3032;49.484;11.112;2024-03-02T12:02:16;14.10;;;11.70;;
6007;SDS011;3032;49.484;11.112;2024-03-02T12:04:45;18.67;;;11.60;;
6007;SDS011;3032;49.484;11.112;2024-03-02T12:07:18;16.48;;;11.68;;
6007;SDS011;3032;49.484;11.112;2024-03-02T12:09:46;16.45;;;13.18;;
6007;SDS011;3032;49.484;11.112;2024-03-02T12:12:11;17.70;;;13.30;;
6007;SDS011;3032;49.484;11.112;2024-03-02T12:14:39;17.48;;;12.65;;
6007;SDS011;3032;49.484;11.112;2024-03-02T12:17:05;21.67;;;13.70;;
6007;SDS011;3032;49.484;11.112;2024-03-02T12:19:31;16.27;;;12.75;;
6007;SDS011;3032;49.484;11.112;2024-03-02T12:21:57;22.73;;;15.57;;
6007;SDS011;3032;49.484;11.112;2024-03-02T12:24:24;15.83;;;12.27;;
6007;SDS011;3032;49.484;11.112;2024-03-02T12:26:51;18.15;;;15.13;;
6007;SDS011;3032;49.484;11.112;2024-03-02T12:29:18;21.45;;;16.33;;
6007;SDS011;3032;49.484;11.112;2024-03-02T12:31:45;21.25;;;15.32;;
6007;SDS011;3032;49.484;11.112;2024-03-02T12:34:14;16.83;;;13.35;;
6007;SDS011;3032;49.484;11.112;2024-03-02T12:36:41;20.27;;;14.35;;
6007;SDS011;3032;49.484;11.112;2024-03-02T12:39:07;18.13;;;14.02;;
6007;SDS011;3032;49.484;11.112;2024-03-02T12:41:36;20.92;;;15.25;;
6007;SDS011;3032;49.484;11.112;2024-03-02T12:44:03;21.67;;;15.27;;
6007;SDS011;3032;49.484;11.112;2024-03-02T12:46:29;22.75;;;16.15;;
6007;SDS011;3032;49.484;11.112;2024-03-02T12:48:55;20.27;;;15.98;;
6007;SDS011;3032;49.484;11.112;2024-03-02T12:51:21;24.20;;;18.80;;
6007;SDS011;3032;49.484;11.112;2024-03-02T12:53:52;20.87;;;15.80;;
6007;SDS011;3032;49.484;11.112;2024-03-02T12:56:19;20.90;;;14.85;;
6007;SDS011;3032;49.484;11.112;2024-03-02T12:58:45;18.37;;;14.03;;
6007;SDS011;3032;49.484;11.112;2024-03-02T13:01:11;20.20;;;15.80;;
6007;SDS011;3032;49.484;11.112;2024-03-02T13:03:37;19.10;;;14.97;;
6007;SDS011;3032;49.484;11.112;2024-03-02T13:06:04;20.75;;;16.67;;
6007;SDS011;3032;49.484;11.112;2024-03-02T13:08:31;20.70;;;15.90;;
6007;SDS011;3032;49.484;11.112;2024-03-02T13:10:57;19.83;;;14.75;;
6007;SDS011;3032;49.484;11.112;2024-03-02T13:13:22;21.00;;;14.37;;
6007;SDS011;3032;49.484;11.112;2024-03-02T13:15:48;17.73;;;13.17;;
6007;SDS011;3032;49.484;11.112;2024-03-02T13:18:14;18.17;;;14.17;;
6007;SDS011;3032;49.484;11.112;2024-03-02T13:20:39;17.30;;;12.83;;
6007;SDS011;3032;49.484;11.112;2024-03-02T13:23:05;18.80;;;13.20;;
6007;SDS011;3032;49.484;11.112;2024-03-02T13:25:31;16.33;;;12.48;;
6007;SDS011;3032;49.484;11.112;2024-03-02T13:27:57;15.93;;;12.90;;
6007;SDS011;3032;49.484;11.112;2024-03-02T13:30:24;16.33;;;13.13;;
6007;SDS011;3032;49.484;11.112;2024-03-02T13:32:49;17.17;;;12.70;;
6007;SDS011;3032;49.484;11.112;2024-03-02T13:35:15;18.07;;;13.17;;
6007;SDS011;3032;49.484;11.112;2024-03-02T13:37:40;16.30;;;11.50;;
6007;SDS011;3032;49.484;11.112;2024-03-02T13:40:06;15.53;;;10.80;;
6007;SDS011;3032;49.484;11.112;2024-03-02T13:42:38;16.10;;;11.90;;
6007;SDS011;3032;49.484;11.112;2024-03-02T13:45:04;14.18;;;11.52;;
6007;SDS011;3032;49.484;11.112;2024-03-02T13:47:30;17.80;;;11.88;;
6007;SDS011;3032;49.484;11.112;2024-03-02T13:49:56;13.93;;;10.10;;
6007;SDS011;3032;49.484;11.112;2024-03-02T13:52:22;12.23;;;10.53;;
6007;SDS011;3032;49.484;11.112;2024-03-02T13:54:48;14.03;;;10.37;;
6007;SDS011;3032;49.484;11.112;2024-03-02T13:57:14;13.35;;;10.10;;
6007;SDS011;3032;49.484;11.112;2024-03-02T13:59:40;14.00;;;10.67;;
6007;SDS011;3032;49.484;11.112;2024-03-02T14:02:07;13.40;;;10.20;;
6007;SDS011;3032;49.484;11.112;2024-03-02T14:04:33;13.95;;;11.77;;
6007;SDS011;3032;49.484;11.112;2024-03-02T14:07:00;15.25;;;12.30;;
6007;SDS011;3032;49.484;11.112;2024-03-02T14:09:25;18.38;;;13.35;;
6007;SDS011;3032;49.484;11.112;2024-03-02T14:11:52;15.88;;;12.07;;
6007;SDS011;3032;49.484;11.112;2024-03-02T14:14:18;16.70;;;12.85;;
6007;SDS011;3032;49.484;11.112;2024-03-02T14:16:43;19.50;;;13.17;;
6007;SDS011;3032;49.484;11.112;2024-03-02T14:19:10;20.58;;;14.18;;
6007;SDS011;3032;49.484;11.112;2024-03-02T14:21:36;18.50;;;14.27;;
6007;SDS011;3032;49.484;11.112;2024-03-02T14:24:02;19.80;;;15.13;;
6007;SDS011;3032;49.484;11.112;2024-03-02T14:26:28;22.93;;;15.90;;
6007;SDS011;3032;49.484;11.112;2024-03-02T14:28:54;21.30;;;15.23;;
6007;SDS011;3032;49.484;11.112;2024-03-02T14:31:19;19.23;;;15.20;;
6007;SDS011;3032;49.484;11.112;2024-03-02T14:33:45;21.10;;;15.17;;
6007;SDS011;3032;49.484;11.112;2024-03-02T14:36:11;23.07;;;14.40;;
6007;SDS011;3032;49.484;11.112;2024-03-02T14:38:37;22.20;;;15.80;;
6007;SDS011;3032;49.484;11.112;2024-03-02T14:41:03;26.30;;;15.93;;
6007;SDS011;3032;49.484;11.112;2024-03-02T14:43:29;26.45;;;17.30;;
6007;SDS011;3032;49.484;11.112;2024-03-02T14:45:55;21.87;;;16.30;;